Violeta B — 5BEH4 — position and weather

sailwx.info

Track history (hours):
 
Tides and Currents Weather Stations Pressure Air Temp Water Temp Dewpoint Dewpoint Depression Visibility Wind Speed Wind Dir Waves Ship Positions

Violeta B

Last reported at 2018-Apr-26 16:28 UTC. Time now 2018-Apr-26 16:42 UTC.
Position N 41°21' E 002°10'.

Length 170 m; draft 7 m.

Type: Ship (hazmat cat A). MMSI: 212417000.

Date/timePositionNaut miles runAvg speedWind from/ knotsBaromVisibWave heightAir tempDewpointWater temp
2018-Apr-26 16:28N 41°21' E 002°10'0 0.5
2018-Apr-26 16:00N 41°21' E 002°10'4 8.0
2018-Apr-26 15:30N 41°17' E 002°11'4 7.6
2018-Apr-26 15:00N 41°14' E 002°11'4 7.0
2018-Apr-26 14:31N 41°11' E 002°09'2 4.1
2018-Apr-26 14:00N 41°12' E 002°08'2 3.1
2018-Apr-26 13:30N 41°13' E 002°06'1 1.1
2018-Apr-26 13:00N 41°13' E 002°06'0 0.8
2018-Apr-26 12:30N 41°12' E 002°07'1 1.1
2018-Apr-26 12:00N 41°12' E 002°07'1 1.4
2018-Apr-26 11:30N 41°11' E 002°07'1 1.5
2018-Apr-26 11:00N 41°11' E 002°08'0 0.9
2018-Apr-26 10:30N 41°11' E 002°09'0 0.9
2018-Apr-26 10:00N 41°11' E 002°09'0 0.5
2018-Apr-26 09:30N 41°11' E 002°10'0 0.7
2018-Apr-26 09:00N 41°11' E 002°10'0 0.1
2018-Apr-26 08:30N 41°11' E 002°10'0 0.9
2018-Apr-26 08:00N 41°11' E 002°09'4 7.3
2018-Apr-26 07:30N 41°11' E 002°05'611.2
2018-Apr-26 07:00N 41°09' E 001°58'611.7
2018-Apr-26 06:30N 41°05' E 001°52'612.0
2018-Apr-26 06:00N 41°02' E 001°45'611.9
2018-Apr-26 05:30N 40°58' E 001°39'104 7.3
2018-Apr-25 15:13N 39°44' E 000°02'211.8
2018-Apr-25 15:00N 39°42' E 000°00'811.6
2018-Apr-25 14:20N 39°36' W 000°06'511.4
2018-Apr-25 13:56N 39°33' W 000°09'511.6
2018-Apr-25 13:30N 39°28' W 000°12'510.2
2018-Apr-25 13:00N 39°26' W 000°18'0 0.0
2018-Apr-25 00:33N 39°26' W 000°19'0 0.0
2018-Apr-24 23:21N 39°26' W 000°19'1 1.6
2018-Apr-24 22:59N 39°26' W 000°18'2 5.0
2018-Apr-24 22:30N 39°26' W 000°15'5713.4
2018-Apr-24 18:13N 38°30' E 000°05'417.5
2018-Apr-24 18:00N 38°29' E 000°00'917.4
2018-Apr-24 17:28N 38°24' W 000°10'817.6
2018-Apr-24 17:00N 38°21' W 000°20'7 1.0
2018-Apr-24 09:35N 38°16' W 000°26'315.1
2018-Apr-24 09:23N 38°13' W 000°24'1015.5
2018-Apr-24 08:44N 38°03' W 000°24'416.0
2018-Apr-24 08:30N 37°59' W 000°25'816.1
2018-Apr-24 08:00N 37°51' W 000°26'816.3
2018-Apr-24 07:30N 37°43' W 000°28'816.6
2018-Apr-24 07:01N 37°35' W 000°30'816.0
2018-Apr-24 06:30N 37°29' W 000°37'816.2
2018-Apr-24 06:01N 37°24' W 000°44'816.4
2018-Apr-24 05:30N 37°18' W 000°52'816.4
2018-Apr-24 05:00N 37°13' W 000°60'21116.1
2018-Apr-23 15:54N 36°01' W 005°07'718.1
2018-Apr-23 15:30N 35°60' W 005°15'917.9
2018-Apr-23 15:01N 35°58' W 005°26'  
2018-Apr-20 21:09N 28°37' W 016°06'1 9.9
2018-Apr-20 21:00N 28°36' W 016°04'5 9.1
2018-Apr-20 20:30N 28°31' W 016°04'5 9.4
2018-Apr-20 20:01N 28°29' W 016°08'5 9.9
2018-Apr-20 19:30N 28°29' W 016°14'1 1.0
2018-Apr-20 19:00N 28°29' W 016°14'0 0.0
2018-Apr-20 18:30N 28°29' W 016°14'0 0.0
2018-Apr-20 18:00N 28°29' W 016°14'0 0.0
2018-Apr-20 17:30N 28°29' W 016°14'0 0.0
2018-Apr-20 17:00N 28°29' W 016°14'0 0.0
2018-Apr-20 16:30N 28°29' W 016°14'0 0.0
2018-Apr-20 16:00N 28°29' W 016°14'0 0.0
2018-Apr-20 15:30N 28°29' W 016°14'0 0.0
2018-Apr-20 15:00N 28°29' W 016°14'0 0.0
2018-Apr-20 14:30N 28°29' W 016°14'0 0.0
2018-Apr-20 14:00N 28°29' W 016°14'0 0.0
2018-Apr-20 13:30N 28°29' W 016°14'0 0.0
2018-Apr-20 13:00N 28°29' W 016°14'0 0.0
2018-Apr-20 12:30N 28°29' W 016°14'0 0.0
2018-Apr-20 12:00N 28°29' W 016°14'0 0.0
2018-Apr-20 11:30N 28°29' W 016°14'0 0.0
2018-Apr-20 11:00N 28°29' W 016°14'0 0.0
2018-Apr-20 10:30N 28°29' W 016°14'0 0.0
2018-Apr-20 10:00N 28°29' W 016°14'0 0.0
2018-Apr-20 09:30N 28°29' W 016°14'0 0.0
2018-Apr-20 09:00N 28°29' W 016°14'0 0.0
2018-Apr-20 08:30N 28°29' W 016°14'0 0.0
2018-Apr-20 08:00N 28°29' W 016°14'0 0.0
2018-Apr-20 07:30N 28°29' W 016°14'0 0.0
2018-Apr-20 07:00N 28°29' W 016°14'0 0.0
2018-Apr-20 06:30N 28°29' W 016°14'0 0.0
2018-Apr-20 06:00N 28°29' W 016°14'0 0.0
2018-Apr-20 05:30N 28°29' W 016°14'0 0.0
2018-Apr-20 05:00N 28°29' W 016°14'0 0.0
2018-Apr-20 04:30N 28°29' W 016°14'0 0.0
2018-Apr-20 04:00N 28°29' W 016°14'0 0.0
2018-Apr-20 03:30N 28°29' W 016°14'0 0.0
2018-Apr-20 03:00N 28°29' W 016°14'0 0.0
2018-Apr-20 02:30N 28°29' W 016°14'0 0.0
2018-Apr-20 02:00N 28°29' W 016°14'0 0.3
2018-Apr-20 01:30N 28°29' W 016°14'2 3.4
2018-Apr-20 01:00N 28°28' W 016°13'4 8.3
2018-Apr-20 00:30N 28°26' W 016°08'612.5
2018-Apr-20 00:00N 28°24' W 016°02'713.6
2018-Apr-19 23:30N 28°22' W 015°54'713.7
2018-Apr-19 23:00N 28°20' W 015°47'714.3
2018-Apr-19 22:30N 28°18' W 015°39'714.2
2018-Apr-19 22:00N 28°16' W 015°32'714.1
2018-Apr-19 21:30N 28°14' W 015°24'611.9
2018-Apr-19 21:01N 28°08' W 015°22'3 5.4
2018-Apr-19 20:30N 28°09' W 015°25'0 0.1
2018-Apr-19 19:49N 28°09' W 015°25'0 0.0
2018-Apr-19 19:28N 28°09' W 015°25'0 0.0
2018-Apr-19 18:58N 28°09' W 015°25'0 0.0
2018-Apr-19 18:28N 28°09' W 015°25'0 0.0
2018-Apr-19 17:58N 28°09' W 015°25'0 0.0
2018-Apr-19 17:19N 28°09' W 015°25'0 0.0
2018-Apr-19 16:49N 28°09' W 015°25'0 0.0
2018-Apr-19 16:19N 28°09' W 015°25'0 0.0
2018-Apr-19 15:52N 28°09' W 015°25'0 0.0
2018-Apr-19 15:22N 28°09' W 015°25'0 0.0
2018-Apr-19 14:52N 28°09' W 015°25'0 0.0
2018-Apr-19 14:22N 28°09' W 015°25'0 0.0
2018-Apr-19 13:52N 28°09' W 015°25'0 0.0
2018-Apr-19 13:22N 28°09' W 015°25'0 0.0
2018-Apr-19 12:55N 28°09' W 015°25'0 0.0
2018-Apr-19 12:25N 28°09' W 015°25'0 0.0
2018-Apr-19 11:55N 28°09' W 015°25'0 0.0
2018-Apr-19 11:25N 28°09' W 015°25'0 0.0
2018-Apr-19 10:55N 28°09' W 015°25'0 0.0
2018-Apr-19 10:25N 28°09' W 015°25'0 0.0
2018-Apr-19 09:43N 28°09' W 015°25'0 0.0
2018-Apr-19 09:28N 28°09' W 015°25'0 0.0
2018-Apr-19 08:58N 28°09' W 015°25'0 0.0
2018-Apr-19 08:28N 28°09' W 015°25'0 0.0
2018-Apr-19 07:58N 28°09' W 015°25'0 0.0
2018-Apr-19 07:28N 28°09' W 015°25'0 0.0
2018-Apr-19 06:58N 28°09' W 015°25'0 0.0
2018-Apr-19 06:16N 28°09' W 015°25'0 0.0
2018-Apr-19 05:58N 28°09' W 015°25'0 0.0
2018-Apr-19 05:28N 28°09' W 015°25'0 0.0
2018-Apr-19 04:58N 28°09' W 015°25'0 0.0
2018-Apr-19 04:28N 28°09' W 015°25'0 0.0
2018-Apr-19 03:58N 28°09' W 015°25'0 0.0
2018-Apr-19 03:28N 28°09' W 015°25'0 0.0
2018-Apr-19 02:49N 28°09' W 015°25'0 0.0
2018-Apr-19 02:19N 28°09' W 015°25'0 0.0
2018-Apr-19 01:49N 28°09' W 015°25'0 0.0
2018-Apr-19 01:22N 28°09' W 015°25'0 0.0
2018-Apr-19 00:52N 28°09' W 015°25'0 0.0
2018-Apr-19 00:22N 28°09' W 015°25'0 0.0
2018-Apr-18 23:52N 28°09' W 015°25'0 0.0
2018-Apr-18 23:22N 28°09' W 015°25'0 0.0
2018-Apr-18 22:55N 28°09' W 015°25'0 0.0
2018-Apr-18 22:22N 28°09' W 015°25'0 0.0
2018-Apr-18 21:52N 28°09' W 015°25'0 0.0
2018-Apr-18 21:19N 28°09' W 015°25'0 0.0
2018-Apr-18 20:55N 28°09' W 015°25'0 0.0
2018-Apr-18 20:25N 28°09' W 015°25'0 0.0
2018-Apr-18 19:55N 28°09' W 015°25'0 0.0
2018-Apr-18 19:28N 28°09' W 015°25'0 0.0
2018-Apr-18 19:00N 28°09' W 015°25'2 3.5
2018-Apr-18 18:30N 28°07' W 015°24'3 6.5
2018-Apr-18 18:01N 28°09' W 015°22'816.4
2018-Apr-18 17:31N 28°14' W 015°29'918.1
2018-Apr-18 17:01N 28°17' W 015°39'1018.0
2018-Apr-18 16:28N 28°20' W 015°49'818.2
2018-Apr-18 16:01N 28°23' W 015°58'918.2
2018-Apr-18 15:31N 28°26' W 016°08'611.4
2018-Apr-18 15:00N 28°29' W 016°14'0 0.1
2018-Apr-18 14:28N 28°29' W 016°14'0 0.0
2018-Apr-18 13:58N 28°29' W 016°14'0 0.0
2018-Apr-18 13:28N 28°29' W 016°14'0 0.0
2018-Apr-18 12:58N 28°29' W 016°14'0 0.0
2018-Apr-18 12:28N 28°29' W 016°14'0 0.0
2018-Apr-18 11:58N 28°29' W 016°14'0 0.0
2018-Apr-18 11:28N 28°29' W 016°14'0 0.0
2018-Apr-18 05:56N 28°29' W 016°14'0 0.7
2018-Apr-18 05:31N 28°29' W 016°14'2 4.1
2018-Apr-18 05:00N 28°27' W 016°12'5 9.2
2018-Apr-18 04:30N 28°30' W 016°07'816.7
2018-Apr-18 04:01N 28°33' W 015°59'917.6
2018-Apr-18 03:31N 28°37' W 015°50'1217.3
2018-Apr-18 02:49N 28°45' W 015°39'816.9
2018-Apr-18 02:22N 28°50' W 015°33'917.0
2018-Apr-18 01:51N 28°56' W 015°25'617.1
2018-Apr-18 01:30N 28°59' W 015°20'816.9
2018-Apr-18 01:00N 29°05' W 015°13'917.0
2018-Apr-18 00:30N 29°11' W 015°05'917.2
2018-Apr-18 00:00N 29°16' W 014°58'917.4
2018-Apr-17 23:30N 29°22' W 014°50'917.3
2018-Apr-17 22:58N 29°28' W 014°42'817.7
2018-Apr-17 22:30N 29°33' W 014°35'1118.4
2018-Apr-17 21:55N 29°41' W 014°26'818.3
2018-Apr-17 21:27N 29°46' W 014°19'918.4
2018-Apr-17 20:58N 29°52' W 014°11'918.5
2018-Apr-17 20:30N 29°57' W 014°03'918.4
2018-Apr-17 20:00N 30°03' W 013°55'918.2
2018-Apr-17 19:30N 30°09' W 013°47'918.0
2018-Apr-17 19:00N 30°15' W 013°39'918.2
2018-Apr-17 18:30N 30°21' W 013°31'918.1
2018-Apr-17 18:00N 30°27' W 013°24'918.4
2018-Apr-17 17:30N 30°33' W 013°16'918.0
2018-Apr-17 17:00N 30°39' W 013°08'1018.0
2018-Apr-17 16:27N 30°46' W 012°59'818.0
2018-Apr-17 15:59N 30°51' W 012°51'918.0
2018-Apr-17 15:30N 30°57' W 012°44'6518.0
2018-Apr-17 11:55N 31°39' W 011°47'2218.0
2018-Apr-17 10:40N 31°54' W 011°27'  
Track history (hours):
 
Tides and Currents Weather Stations Pressure Air Temp Water Temp Dewpoint Dewpoint Depression Visibility Wind Speed Wind Dir Waves Ship Positions

Violeta B

Last reported at 2018-Apr-26 16:28 UTC. Time now 2018-Apr-26 16:42 UTC.
Position N 41°21' E 002°10'.

Length 170 m; draft 7 m.

Type: Ship (hazmat cat A). MMSI: 212417000.

Date/timePositionNaut miles runAvg speedWind from/ knotsBaromVisibWave heightAir tempDewpointWater temp
2018-Apr-26 16:28N 41°21' E 002°10'0 0.5
2018-Apr-26 16:00N 41°21' E 002°10'4 8.0
2018-Apr-26 15:30N 41°17' E 002°11'4 7.6
2018-Apr-26 15:00N 41°14' E 002°11'4 7.0
2018-Apr-26 14:31N 41°11' E 002°09'2 4.1
2018-Apr-26 14:00N 41°12' E 002°08'2 3.1
2018-Apr-26 13:30N 41°13' E 002°06'1 1.1
2018-Apr-26 13:00N 41°13' E 002°06'0 0.8
2018-Apr-26 12:30N 41°12' E 002°07'1 1.1
2018-Apr-26 12:00N 41°12' E 002°07'1 1.4
2018-Apr-26 11:30N 41°11' E 002°07'1 1.5
2018-Apr-26 11:00N 41°11' E 002°08'0 0.9
2018-Apr-26 10:30N 41°11' E 002°09'0 0.9
2018-Apr-26 10:00N 41°11' E 002°09'0 0.5
2018-Apr-26 09:30N 41°11' E 002°10'0 0.7
2018-Apr-26 09:00N 41°11' E 002°10'0 0.1
2018-Apr-26 08:30N 41°11' E 002°10'0 0.9
2018-Apr-26 08:00N 41°11' E 002°09'4 7.3
2018-Apr-26 07:30N 41°11' E 002°05'611.2
2018-Apr-26 07:00N 41°09' E 001°58'611.7
2018-Apr-26 06:30N 41°05' E 001°52'612.0
2018-Apr-26 06:00N 41°02' E 001°45'611.9
2018-Apr-26 05:30N 40°58' E 001°39'104 7.3
2018-Apr-25 15:13N 39°44' E 000°02'211.8
2018-Apr-25 15:00N 39°42' E 000°00'811.6
2018-Apr-25 14:20N 39°36' W 000°06'511.4
2018-Apr-25 13:56N 39°33' W 000°09'511.6
2018-Apr-25 13:30N 39°28' W 000°12'510.2
2018-Apr-25 13:00N 39°26' W 000°18'0 0.0
2018-Apr-25 00:33N 39°26' W 000°19'0 0.0
2018-Apr-24 23:21N 39°26' W 000°19'1 1.6
2018-Apr-24 22:59N 39°26' W 000°18'2 5.0
2018-Apr-24 22:30N 39°26' W 000°15'5713.4
2018-Apr-24 18:13N 38°30' E 000°05'417.5
2018-Apr-24 18:00N 38°29' E 000°00'917.4
2018-Apr-24 17:28N 38°24' W 000°10'817.6
2018-Apr-24 17:00N 38°21' W 000°20'7 1.0
2018-Apr-24 09:35N 38°16' W 000°26'315.1
2018-Apr-24 09:23N 38°13' W 000°24'1015.5
2018-Apr-24 08:44N 38°03' W 000°24'416.0
2018-Apr-24 08:30N 37°59' W 000°25'816.1
2018-Apr-24 08:00N 37°51' W 000°26'816.3
2018-Apr-24 07:30N 37°43' W 000°28'816.6
2018-Apr-24 07:01N 37°35' W 000°30'816.0
2018-Apr-24 06:30N 37°29' W 000°37'816.2
2018-Apr-24 06:01N 37°24' W 000°44'816.4
2018-Apr-24 05:30N 37°18' W 000°52'816.4
2018-Apr-24 05:00N 37°13' W 000°60'21116.1
2018-Apr-23 15:54N 36°01' W 005°07'718.1
2018-Apr-23 15:30N 35°60' W 005°15'917.9
2018-Apr-23 15:01N 35°58' W 005°26'  
2018-Apr-20 21:09N 28°37' W 016°06'1 9.9
2018-Apr-20 21:00N 28°36' W 016°04'5 9.1
2018-Apr-20 20:30N 28°31' W 016°04'5 9.4
2018-Apr-20 20:01N 28°29' W 016°08'5 9.9
2018-Apr-20 19:30N 28°29' W 016°14'1 1.0
2018-Apr-20 19:00N 28°29' W 016°14'0 0.0
2018-Apr-20 18:30N 28°29' W 016°14'0 0.0
2018-Apr-20 18:00N 28°29' W 016°14'0 0.0
2018-Apr-20 17:30N 28°29' W 016°14'0 0.0
2018-Apr-20 17:00N 28°29' W 016°14'0 0.0
2018-Apr-20 16:30N 28°29' W 016°14'0 0.0
2018-Apr-20 16:00N 28°29' W 016°14'0 0.0
2018-Apr-20 15:30N 28°29' W 016°14'0 0.0
2018-Apr-20 15:00N 28°29' W 016°14'0 0.0
2018-Apr-20 14:30N 28°29' W 016°14'0 0.0
2018-Apr-20 14:00N 28°29' W 016°14'0 0.0
2018-Apr-20 13:30N 28°29' W 016°14'0 0.0
2018-Apr-20 13:00N 28°29' W 016°14'0 0.0
2018-Apr-20 12:30N 28°29' W 016°14'0 0.0
2018-Apr-20 12:00N 28°29' W 016°14'0 0.0
2018-Apr-20 11:30N 28°29' W 016°14'0 0.0
2018-Apr-20 11:00N 28°29' W 016°14'0 0.0
2018-Apr-20 10:30N 28°29' W 016°14'0 0.0
2018-Apr-20 10:00N 28°29' W 016°14'0 0.0
2018-Apr-20 09:30N 28°29' W 016°14'0 0.0
2018-Apr-20 09:00N 28°29' W 016°14'0 0.0
2018-Apr-20 08:30N 28°29' W 016°14'0 0.0
2018-Apr-20 08:00N 28°29' W 016°14'0 0.0
2018-Apr-20 07:30N 28°29' W 016°14'0 0.0
2018-Apr-20 07:00N 28°29' W 016°14'0 0.0
2018-Apr-20 06:30N 28°29' W 016°14'0 0.0
2018-Apr-20 06:00N 28°29' W 016°14'0 0.0
2018-Apr-20 05:30N 28°29' W 016°14'0 0.0
2018-Apr-20 05:00N 28°29' W 016°14'0 0.0
2018-Apr-20 04:30N 28°29' W 016°14'0 0.0
2018-Apr-20 04:00N 28°29' W 016°14'0 0.0
2018-Apr-20 03:30N 28°29' W 016°14'0 0.0
2018-Apr-20 03:00N 28°29' W 016°14'0 0.0
2018-Apr-20 02:30N 28°29' W 016°14'0 0.0
2018-Apr-20 02:00N 28°29' W 016°14'0 0.3
2018-Apr-20 01:30N 28°29' W 016°14'2 3.4
2018-Apr-20 01:00N 28°28' W 016°13'4 8.3
2018-Apr-20 00:30N 28°26' W 016°08'612.5
2018-Apr-20 00:00N 28°24' W 016°02'713.6
2018-Apr-19 23:30N 28°22' W 015°54'713.7
2018-Apr-19 23:00N 28°20' W 015°47'714.3
2018-Apr-19 22:30N 28°18' W 015°39'714.2
2018-Apr-19 22:00N 28°16' W 015°32'714.1
2018-Apr-19 21:30N 28°14' W 015°24'611.9
2018-Apr-19 21:01N 28°08' W 015°22'3 5.4
2018-Apr-19 20:30N 28°09' W 015°25'0 0.1
2018-Apr-19 19:49N 28°09' W 015°25'0 0.0
2018-Apr-19 19:28N 28°09' W 015°25'0 0.0
2018-Apr-19 18:58N 28°09' W 015°25'0 0.0
2018-Apr-19 18:28N 28°09' W 015°25'0 0.0
2018-Apr-19 17:58N 28°09' W 015°25'0 0.0
2018-Apr-19 17:19N 28°09' W 015°25'0 0.0
2018-Apr-19 16:49N 28°09' W 015°25'0 0.0
2018-Apr-19 16:19N 28°09' W 015°25'0 0.0
2018-Apr-19 15:52N 28°09' W 015°25'0 0.0
2018-Apr-19 15:22N 28°09' W 015°25'0 0.0
2018-Apr-19 14:52N 28°09' W 015°25'0 0.0
2018-Apr-19 14:22N 28°09' W 015°25'0 0.0
2018-Apr-19 13:52N 28°09' W 015°25'0 0.0
2018-Apr-19 13:22N 28°09' W 015°25'0 0.0
2018-Apr-19 12:55N 28°09' W 015°25'0 0.0
2018-Apr-19 12:25N 28°09' W 015°25'0 0.0
2018-Apr-19 11:55N 28°09' W 015°25'0 0.0
2018-Apr-19 11:25N 28°09' W 015°25'0 0.0
2018-Apr-19 10:55N 28°09' W 015°25'0 0.0
2018-Apr-19 10:25N 28°09' W 015°25'0 0.0
2018-Apr-19 09:43N 28°09' W 015°25'0 0.0
2018-Apr-19 09:28N 28°09' W 015°25'0 0.0
2018-Apr-19 08:58N 28°09' W 015°25'0 0.0
2018-Apr-19 08:28N 28°09' W 015°25'0 0.0
2018-Apr-19 07:58N 28°09' W 015°25'0 0.0
2018-Apr-19 07:28N 28°09' W 015°25'0 0.0
2018-Apr-19 06:58N 28°09' W 015°25'0 0.0
2018-Apr-19 06:16N 28°09' W 015°25'0 0.0
2018-Apr-19 05:58N 28°09' W 015°25'0 0.0
2018-Apr-19 05:28N 28°09' W 015°25'0 0.0
2018-Apr-19 04:58N 28°09' W 015°25'0 0.0
2018-Apr-19 04:28N 28°09' W 015°25'0 0.0
2018-Apr-19 03:58N 28°09' W 015°25'0 0.0
2018-Apr-19 03:28N 28°09' W 015°25'0 0.0
2018-Apr-19 02:49N 28°09' W 015°25'0 0.0
2018-Apr-19 02:19N 28°09' W 015°25'0 0.0
2018-Apr-19 01:49N 28°09' W 015°25'0 0.0
2018-Apr-19 01:22N 28°09' W 015°25'0 0.0
2018-Apr-19 00:52N 28°09' W 015°25'0 0.0
2018-Apr-19 00:22N 28°09' W 015°25'0 0.0
2018-Apr-18 23:52N 28°09' W 015°25'0 0.0
2018-Apr-18 23:22N 28°09' W 015°25'0 0.0
2018-Apr-18 22:55N 28°09' W 015°25'0 0.0
2018-Apr-18 22:22N 28°09' W 015°25'0 0.0
2018-Apr-18 21:52N 28°09' W 015°25'0 0.0
2018-Apr-18 21:19N 28°09' W 015°25'0 0.0
2018-Apr-18 20:55N 28°09' W 015°25'0 0.0
2018-Apr-18 20:25N 28°09' W 015°25'0 0.0
2018-Apr-18 19:55N 28°09' W 015°25'0 0.0
2018-Apr-18 19:28N 28°09' W 015°25'0 0.0
2018-Apr-18 19:00N 28°09' W 015°25'2 3.5
2018-Apr-18 18:30N 28°07' W 015°24'3 6.5
2018-Apr-18 18:01N 28°09' W 015°22'816.4
2018-Apr-18 17:31N 28°14' W 015°29'918.1
2018-Apr-18 17:01N 28°17' W 015°39'1018.0
2018-Apr-18 16:28N 28°20' W 015°49'818.2
2018-Apr-18 16:01N 28°23' W 015°58'918.2
2018-Apr-18 15:31N 28°26' W 016°08'611.4
2018-Apr-18 15:00N 28°29' W 016°14'0 0.1
2018-Apr-18 14:28N 28°29' W 016°14'0 0.0
2018-Apr-18 13:58N 28°29' W 016°14'0 0.0
2018-Apr-18 13:28N 28°29' W 016°14'0 0.0
2018-Apr-18 12:58N 28°29' W 016°14'0 0.0
2018-Apr-18 12:28N 28°29' W 016°14'0 0.0
2018-Apr-18 11:58N 28°29' W 016°14'0 0.0
2018-Apr-18 11:28N 28°29' W 016°14'0 0.0
2018-Apr-18 05:56N 28°29' W 016°14'0 0.7
2018-Apr-18 05:31N 28°29' W 016°14'2 4.1
2018-Apr-18 05:00N 28°27' W 016°12'5 9.2
2018-Apr-18 04:30N 28°30' W 016°07'816.7
2018-Apr-18 04:01N 28°33' W 015°59'917.6
2018-Apr-18 03:31N 28°37' W 015°50'1217.3
2018-Apr-18 02:49N 28°45' W 015°39'816.9
2018-Apr-18 02:22N 28°50' W 015°33'917.0
2018-Apr-18 01:51N 28°56' W 015°25'617.1
2018-Apr-18 01:30N 28°59' W 015°20'816.9
2018-Apr-18 01:00N 29°05' W 015°13'917.0
2018-Apr-18 00:30N 29°11' W 015°05'917.2
2018-Apr-18 00:00N 29°16' W 014°58'917.4
2018-Apr-17 23:30N 29°22' W 014°50'917.3
2018-Apr-17 22:58N 29°28' W 014°42'817.7
2018-Apr-17 22:30N 29°33' W 014°35'1118.4
2018-Apr-17 21:55N 29°41' W 014°26'818.3
2018-Apr-17 21:27N 29°46' W 014°19'918.4
2018-Apr-17 20:58N 29°52' W 014°11'918.5
2018-Apr-17 20:30N 29°57' W 014°03'918.4
2018-Apr-17 20:00N 30°03' W 013°55'918.2
2018-Apr-17 19:30N 30°09' W 013°47'918.0
2018-Apr-17 19:00N 30°15' W 013°39'918.2
2018-Apr-17 18:30N 30°21' W 013°31'918.1
2018-Apr-17 18:00N 30°27' W 013°24'918.4
2018-Apr-17 17:30N 30°33' W 013°16'918.0
2018-Apr-17 17:00N 30°39' W 013°08'1018.0
2018-Apr-17 16:27N 30°46' W 012°59'818.0
2018-Apr-17 15:59N 30°51' W 012°51'918.0
2018-Apr-17 15:30N 30°57' W 012°44'6518.0
2018-Apr-17 11:55N 31°39' W 011°47'2218.0
2018-Apr-17 10:40N 31°54' W 011°27'  

Dump ship's entire track history